Terminal Aerodrome Forecast
Issued by NWS Quad Cities IA IL

Home | Current Version | Previous Version | Text Only | Print | Product List | Glossary On
Versions: 1 2 3 4 5 6 7 8 9 10 11 12 13 14 15 16 17 18 19 20 21 22 23 24 25 26 27 28 29 30 31
000
FTUS43 KDVN 200520
TAFDBQ
TAF
KDBQ 200520Z 2006/2106 08012G20KT P6SM OVC035
     FM200700 06014G20KT 6SM -RA BR OVC025
     FM200900 08015G22KT 4SM -DZ BR OVC009
     FM201300 10017G22KT 4SM SHRA BR OVC008
     FM201700 12012G20KT 3SM BR OVC007=

USA.gov is the U.S. government's official web portal to all federal, state and local government web resources and services.